createdAt,value
2022-10-15T00:01:52.623Z,37.90
2022-10-15T00:04:21.483Z,38.03
2022-10-15T00:06:50.215Z,37.10
2022-10-15T00:09:20.518Z,38.40
2022-10-15T00:11:49.566Z,36.30
2022-10-15T00:14:18.836Z,36.23
2022-10-15T00:16:47.719Z,37.20
2022-10-15T00:19:16.610Z,34.23
2022-10-15T00:21:45.141Z,36.13
2022-10-15T00:24:13.956Z,36.07
2022-10-15T00:26:44.243Z,36.30
2022-10-15T00:29:14.141Z,36.70
2022-10-15T00:31:43.123Z,38.03
2022-10-15T00:34:12.449Z,38.60
2022-10-15T00:36:41.269Z,38.27
2022-10-15T00:39:10.158Z,39.83
2022-10-15T00:41:43.049Z,38.90
2022-10-15T00:44:50.338Z,40.10
2022-10-15T00:47:24.445Z,40.07
2022-10-15T00:49:58.903Z,38.63
2022-10-15T00:52:34.261Z,38.03
2022-10-15T00:55:10.326Z,38.00
2022-10-15T00:57:40.270Z,38.97
2022-10-15T01:00:16.581Z,37.10
2022-10-15T01:02:46.155Z,37.60
2022-10-15T01:05:16.939Z,36.40
2022-10-15T01:07:46.288Z,35.70
2022-10-15T01:10:21.783Z,34.60
2022-10-15T01:12:58.967Z,33.83
2022-10-15T01:15:35.163Z,31.30
2022-10-15T01:18:10.396Z,30.17
2022-10-15T01:20:51.870Z,30.97
2022-10-15T01:24:02.919Z,30.67
2022-10-15T01:27:09.404Z,29.73
2022-10-15T01:30:06.316Z,28.90
2022-10-15T01:32:45.166Z,28.73
2022-10-15T01:35:30.247Z,28.63
2022-10-15T01:38:12.633Z,28.23
2022-10-15T01:40:50.606Z,28.13
2022-10-15T01:43:25.037Z,27.67
2022-10-15T01:46:18.065Z,28.03
2022-10-15T01:49:06.261Z,26.37
2022-10-15T01:51:38.525Z,28.03
2022-10-15T01:54:11.947Z,28.63
2022-10-15T01:56:42.033Z,28.53
2022-10-15T01:59:12.199Z,27.77
2022-10-15T02:01:44.955Z,28.23
2022-10-15T02:04:23.966Z,28.53
2022-10-15T02:07:02.531Z,29.93
2022-10-15T02:09:42.113Z,33.53
2022-10-15T02:12:21.491Z,36.67
2022-10-15T02:14:57.813Z,36.37
2022-10-15T02:17:33.247Z,35.73
2022-10-15T02:20:08.398Z,38.27
2022-10-15T02:22:42.346Z,37.37
2022-10-15T02:25:15.481Z,38.23
2022-10-15T02:27:46.989Z,39.37
2022-10-15T02:30:18.330Z,40.00
2022-10-15T02:32:53.373Z,40.23
2022-10-15T02:35:26.173Z,38.93
2022-10-15T02:37:57.425Z,39.50
2022-10-15T02:40:31.151Z,41.07
2022-10-15T02:43:01.369Z,40.67
2022-10-15T02:45:29.900Z,41.57
2022-10-15T02:47:59.055Z,43.60
2022-10-15T02:50:29.510Z,44.87
2022-10-15T02:52:58.327Z,45.10
2022-10-15T02:55:27.158Z,45.40
2022-10-15T02:57:55.752Z,49.43
2022-10-15T03:00:24.911Z,48.40
2022-10-15T03:02:54.682Z,45.73
2022-10-15T03:05:23.647Z,43.93
2022-10-15T03:07:54.164Z,42.03
2022-10-15T03:10:23.743Z,42.03
2022-10-15T03:12:52.370Z,41.43
2022-10-15T03:15:21.624Z,42.13
2022-10-15T03:17:50.494Z,39.37
2022-10-15T03:20:21.350Z,38.80
2022-10-15T03:22:50.727Z,37.47
2022-10-15T03:25:22.368Z,38.23
2022-10-15T03:28:00.493Z,38.97
2022-10-15T03:30:37.641Z,40.27
2022-10-15T03:33:07.882Z,40.27
2022-10-15T03:35:37.834Z,40.50
2022-10-15T03:38:07.766Z,41.90
2022-10-15T03:40:40.838Z,47.33
2022-10-15T03:43:20.140Z,48.47
2022-10-15T03:45:49.203Z,49.73
2022-10-15T03:48:23.024Z,47.80
2022-10-15T03:50:51.749Z,44.97
2022-10-15T03:53:21.881Z,42.57
2022-10-15T03:55:53.583Z,40.67
2022-10-15T03:58:22.435Z,36.73
2022-10-15T04:00:56.946Z,36.07
2022-10-15T04:03:26.781Z,34.77
2022-10-15T04:05:56.767Z,35.27
2022-10-15T04:08:29.790Z,36.00
2022-10-15T04:11:00.870Z,37.30
2022-10-15T04:13:30.624Z,37.07
2022-10-15T04:15:59.517Z,36.97
2022-10-15T04:18:29.316Z,39.20
2022-10-15T04:21:00.490Z,39.63
2022-10-15T04:23:30.787Z,37.60
2022-10-15T04:26:19.524Z,38.43
2022-10-15T04:28:49.461Z,37.07
2022-10-15T04:31:20.329Z,37.07
2022-10-15T04:33:50.423Z,35.80
2022-10-15T04:36:19.320Z,35.17
2022-10-15T04:38:54.318Z,35.17
2022-10-15T04:41:38.126Z,36.73
2022-10-15T04:44:11.685Z,37.93
2022-10-15T04:46:41.645Z,37.20
2022-10-15T04:49:24.908Z,36.27
2022-10-15T04:51:54.185Z,36.90
2022-10-15T04:54:31.088Z,36.40
2022-10-15T04:57:06.793Z,38.90
2022-10-15T04:59:37.133Z,35.57
2022-10-15T05:02:40.569Z,35.00
2022-10-15T05:05:41.426Z,35.43
2022-10-15T05:08:10.896Z,35.33
2022-10-15T05:11:01.929Z,36.07
2022-10-15T05:13:33.902Z,34.90
2022-10-15T05:16:12.020Z,32.80
2022-10-15T05:18:45.983Z,31.87
2022-10-15T05:21:15.923Z,31.70
2022-10-15T05:23:47.304Z,31.93
2022-10-15T05:26:27.749Z,30.90
2022-10-15T05:28:59.834Z,32.07
2022-10-15T05:31:33.621Z,31.63
2022-10-15T05:34:15.907Z,31.37
2022-10-15T05:36:53.806Z,32.23
2022-10-15T05:39:23.110Z,32.60
2022-10-15T05:41:53.599Z,32.73
2022-10-15T05:44:31.828Z,33.50
2022-10-15T05:47:01.057Z,32.23
2022-10-15T05:49:30.767Z,32.03
2022-10-15T05:52:07.862Z,32.60
2022-10-15T05:55:06.584Z,31.53
2022-10-15T05:57:35.389Z,31.17
2022-10-15T06:00:09.160Z,30.10
2022-10-15T06:02:41.302Z,29.30
2022-10-15T06:05:10.604Z,27.73
2022-10-15T06:07:39.986Z,26.00
2022-10-15T06:10:09.426Z,26.27
2022-10-15T06:12:39.244Z,24.73
2022-10-15T06:15:11.416Z,23.97
2022-10-15T06:17:39.962Z,24.57
2022-10-15T06:20:09.220Z,23.47
2022-10-15T06:22:38.259Z,24.33
2022-10-15T06:25:08.123Z,23.10
2022-10-15T06:27:36.648Z,22.83
2022-10-15T06:30:05.977Z,24.03
2022-10-15T06:32:36.048Z,23.07
2022-10-15T06:35:04.843Z,23.53
2022-10-15T06:37:35.269Z,25.73
2022-10-15T06:40:03.839Z,23.53
2022-10-15T06:42:32.989Z,23.60
2022-10-15T06:45:01.562Z,23.50
2022-10-15T06:47:30.064Z,24.57
2022-10-15T06:50:00.615Z,23.43
2022-10-15T06:52:31.058Z,24.03
2022-10-15T06:55:00.072Z,22.03
2022-10-15T06:57:28.889Z,21.53
2022-10-15T06:59:57.549Z,21.67
2022-10-15T07:02:26.422Z,19.77
2022-10-15T07:04:55.401Z,19.03
2022-10-15T07:07:26.348Z,20.00
2022-10-15T07:09:55.448Z,19.37
2022-10-15T07:12:25.690Z,19.40
2022-10-15T07:14:54.558Z,17.67
2022-10-15T07:17:23.080Z,19.77
2022-10-15T07:19:51.678Z,21.33
2022-10-15T07:22:20.148Z,24.10
2022-10-15T07:24:49.934Z,25.27
2022-10-15T07:27:19.308Z,23.97
2022-10-15T07:29:48.311Z,21.57
2022-10-15T07:32:16.861Z,22.60
2022-10-15T07:34:45.324Z,21.33
2022-10-15T07:37:13.879Z,21.23
2022-10-15T07:39:42.373Z,19.37
2022-10-15T07:44:41.617Z,18.80
2022-10-15T07:47:11.700Z,20.00
2022-10-15T07:49:40.295Z,18.87
2022-10-15T07:52:09.439Z,19.83
2022-10-15T07:54:38.542Z,18.70
2022-10-15T07:57:08.506Z,18.60
2022-10-15T07:59:38.349Z,19.40
2022-10-15T08:02:07.214Z,18.43
2022-10-15T08:04:36.325Z,18.90
2022-10-15T08:07:06.888Z,18.37
2022-10-15T08:09:38.270Z,18.67
2022-10-15T08:12:07.688Z,17.97
2022-10-15T08:14:38.659Z,18.50
2022-10-15T08:17:08.081Z,19.60
2022-10-15T08:19:36.767Z,19.73
2022-10-15T08:22:05.643Z,18.43
2022-10-15T08:24:34.161Z,19.07
2022-10-15T08:27:02.718Z,18.43
2022-10-15T08:29:31.264Z,20.60
2022-10-15T08:32:01.192Z,20.33
2022-10-15T08:34:32.324Z,18.93
2022-10-15T08:37:00.930Z,19.93
2022-10-15T08:39:29.515Z,20.33
2022-10-15T08:42:02.957Z,19.63
2022-10-15T08:44:41.919Z,19.17
2022-10-15T08:47:25.777Z,20.07
2022-10-15T08:49:56.364Z,19.87
2022-10-15T08:52:30.969Z,19.70
2022-10-15T08:55:02.524Z,19.33
2022-10-15T08:57:39.886Z,19.63
2022-10-15T09:00:17.174Z,19.20
2022-10-15T09:02:53.208Z,19.83
2022-10-15T09:05:34.604Z,19.33
2022-10-15T09:08:11.442Z,19.43
2022-10-15T09:10:47.606Z,18.63
2022-10-15T09:13:24.916Z,20.40
2022-10-15T09:15:59.013Z,20.20
2022-10-15T09:18:31.848Z,20.60
2022-10-15T09:21:03.151Z,19.97
2022-10-15T09:23:35.282Z,20.60
2022-10-15T09:26:11.334Z,19.40
2022-10-15T09:28:47.836Z,21.97
2022-10-15T09:31:24.332Z,19.57
2022-10-15T09:34:00.987Z,19.30
2022-10-15T09:36:38.188Z,18.50
2022-10-15T09:39:32.458Z,19.03
2022-10-15T09:42:15.268Z,19.00
2022-10-15T09:44:48.912Z,19.27
2022-10-15T09:47:23.851Z,18.93
2022-10-15T09:49:56.943Z,18.30
2022-10-15T09:52:37.475Z,18.57
2022-10-15T09:55:16.922Z,19.57
2022-10-15T09:57:52.876Z,19.00
2022-10-15T10:00:22.076Z,27.80
2022-10-15T10:03:07.138Z,30.23
2022-10-15T10:05:39.137Z,22.60
2022-10-15T10:08:18.863Z,19.90
2022-10-15T10:10:55.877Z,20.77
2022-10-15T10:13:26.537Z,20.67
2022-10-15T10:15:58.965Z,24.73
2022-10-15T10:18:28.638Z,20.02
2022-10-15T10:21:01.653Z,24.23
2022-10-15T10:23:34.868Z,21.20
2022-10-15T10:26:05.508Z,33.67
2022-10-15T10:28:40.575Z,21.63
2022-10-15T10:31:13.123Z,23.67
2022-10-15T10:33:47.760Z,20.77
2022-10-15T10:36:29.576Z,23.75
2022-10-15T10:39:02.869Z,22.50
2022-10-15T10:41:51.935Z,21.05
2022-10-15T10:44:23.752Z,20.17
2022-10-15T10:47:12.272Z,19.77
2022-10-15T10:49:42.672Z,19.60
2022-10-15T10:52:26.514Z,20.77
2022-10-15T10:55:00.921Z,20.10
2022-10-15T10:57:41.503Z,19.95
2022-10-15T11:00:17.267Z,19.58
2022-10-15T11:02:51.085Z,20.00
2022-10-15T11:05:28.799Z,19.88
2022-10-15T11:08:08.014Z,20.48
2022-10-15T11:10:44.703Z,19.60
2022-10-15T11:13:35.183Z,18.98
2022-10-15T11:16:09.269Z,19.23
2022-10-15T11:18:55.061Z,18.30
2022-10-15T11:21:36.804Z,19.08
2022-10-15T11:24:14.315Z,18.33
2022-10-15T11:27:10.796Z,19.23
2022-10-15T11:29:52.587Z,19.40
2022-10-15T11:32:42.438Z,20.17
2022-10-15T11:35:54.266Z,20.63
2022-10-15T11:38:33.687Z,21.70
2022-10-15T11:41:27.428Z,21.50
2022-10-15T11:44:20.097Z,19.50
2022-10-15T11:46:57.560Z,19.90
2022-10-15T11:49:38.057Z,19.05
2022-10-15T11:52:24.384Z,19.13
2022-10-15T11:55:03.512Z,17.63
2022-10-15T11:57:36.852Z,17.75
2022-10-15T12:00:15.278Z,18.00
2022-10-15T12:02:47.739Z,18.13
2022-10-15T12:05:20.677Z,18.92
2022-10-15T12:07:51.122Z,18.08
2022-10-15T12:10:38.745Z,18.42
2022-10-15T12:13:16.532Z,17.45
2022-10-15T12:15:52.745Z,17.58
2022-10-15T12:18:29.123Z,16.23
2022-10-15T12:20:58.659Z,16.13
2022-10-15T12:23:41.834Z,14.93
2022-10-15T12:26:32.045Z,13.68
2022-10-15T12:29:06.091Z,15.98
2022-10-15T12:31:49.495Z,96.13
2022-10-15T12:34:31.436Z,18.17
2022-10-15T12:37:06.591Z,9.43
2022-10-15T12:39:53.008Z,6.20
2022-10-15T12:42:25.274Z,11.52
2022-10-15T12:44:56.187Z,5.95
2022-10-15T12:47:50.800Z,6.68
2022-10-15T12:50:21.924Z,6.55
2022-10-15T12:53:01.706Z,6.90
2022-10-15T12:55:33.376Z,8.25
2022-10-15T12:58:34.981Z,9.10
2022-10-15T13:01:27.885Z,10.57
2022-10-15T13:04:01.212Z,10.77
2022-10-15T13:06:35.673Z,11.55
2022-10-15T13:09:17.724Z,12.35
2022-10-15T13:11:49.139Z,12.48
2022-10-15T13:14:27.723Z,14.00
2022-10-15T13:16:59.559Z,13.13
2022-10-15T13:19:31.407Z,12.45
2022-10-15T13:22:03.383Z,13.43
2022-10-15T13:24:43.062Z,13.55
2022-10-15T13:27:22.452Z,13.73
2022-10-15T13:30:01.723Z,13.95
2022-10-15T13:32:34.930Z,13.00
2022-10-15T13:35:11.231Z,13.25
2022-10-15T13:37:42.258Z,13.25
2022-10-15T13:40:21.570Z,14.10
2022-10-15T13:43:00.278Z,13.88
2022-10-15T13:45:29.525Z,13.73
2022-10-15T13:47:59.590Z,13.88
2022-10-15T13:50:30.437Z,14.25
2022-10-15T13:53:01.792Z,14.35
2022-10-15T13:55:33.555Z,16.42
2022-10-15T13:58:05.158Z,14.48
2022-10-15T14:00:35.918Z,15.65
2022-10-15T14:03:19.709Z,15.55
2022-10-15T14:05:49.518Z,15.53
2022-10-15T14:08:20.973Z,14.55
2022-10-15T14:10:51.126Z,15.38
2022-10-15T14:13:19.709Z,22.63
2022-10-15T14:15:53.589Z,16.70
2022-10-15T14:18:35.350Z,16.90
2022-10-15T14:21:04.864Z,16.75
2022-10-15T14:23:33.462Z,17.88
2022-10-15T14:26:04.219Z,16.17
2022-10-15T14:28:35.144Z,17.13
2022-10-15T14:31:03.972Z,16.50
2022-10-15T14:33:42.101Z,15.95
2022-10-15T14:36:15.409Z,16.35
2022-10-15T14:38:43.998Z,16.67
2022-10-15T14:41:29.950Z,17.38
2022-10-15T14:44:03.651Z,19.30
2022-10-15T14:46:38.563Z,20.52
2022-10-15T14:49:20.176Z,49.13
2022-10-15T14:51:59.195Z,39.42
2022-10-15T14:54:35.376Z,45.88
2022-10-15T14:57:05.426Z,35.05
2022-10-15T14:59:38.314Z,26.95
2022-10-15T15:02:15.128Z,21.58
2022-10-15T15:04:48.099Z,19.92
2022-10-15T15:07:19.699Z,20.55
2022-10-15T15:09:52.151Z,26.50
2022-10-15T15:12:26.956Z,24.80
2022-10-15T15:14:56.553Z,21.30
2022-10-15T15:17:26.436Z,22.20
2022-10-15T15:19:58.670Z,32.05
2022-10-15T15:22:30.340Z,33.33
2022-10-15T15:25:01.199Z,81.97
2022-10-15T15:27:37.054Z,35.30
2022-10-15T15:30:07.343Z,18.33
2022-10-15T15:32:36.001Z,19.08
2022-10-15T15:35:18.203Z,19.23
2022-10-15T15:37:46.905Z,16.92
2022-10-15T15:40:15.548Z,19.67
2022-10-15T15:42:45.027Z,17.25
2022-10-15T15:45:21.173Z,15.02
2022-10-15T15:47:49.996Z,15.90
2022-10-15T15:50:21.849Z,18.38
2022-10-15T15:52:50.409Z,18.87
2022-10-15T15:55:18.894Z,17.15
2022-10-15T15:57:48.063Z,51.25
2022-10-15T16:00:17.065Z,17.65
2022-10-15T16:02:46.015Z,16.90
2022-10-15T16:05:16.057Z,12.82
2022-10-15T16:07:46.231Z,11.10
2022-10-15T16:10:14.814Z,8.30
2022-10-15T16:12:44.639Z,4.70
2022-10-15T16:15:14.800Z,4.33
2022-10-15T16:17:44.269Z,4.60
2022-10-15T16:20:13.411Z,4.83
2022-10-15T16:22:42.728Z,4.67
2022-10-15T16:25:12.830Z,5.07
2022-10-15T16:27:41.295Z,4.83
2022-10-15T16:30:11.074Z,5.23
2022-10-15T16:32:39.549Z,5.10
2022-10-15T16:35:09.058Z,5.77
2022-10-15T16:37:37.552Z,6.50
2022-10-15T16:40:07.124Z,6.63
2022-10-15T16:42:36.935Z,7.10
2022-10-15T16:45:06.335Z,6.47
2022-10-15T16:47:34.851Z,7.00
2022-10-15T16:50:03.404Z,7.60
2022-10-15T16:52:31.987Z,8.80
2022-10-15T16:55:00.504Z,9.27
2022-10-15T16:57:29.081Z,8.40
2022-10-15T16:59:59.019Z,8.73
2022-10-15T17:02:27.727Z,8.27
2022-10-15T17:04:56.598Z,8.47
2022-10-15T17:07:25.318Z,9.07
2022-10-15T17:09:54.039Z,9.70
2022-10-15T17:12:23.402Z,9.37
2022-10-15T17:14:52.470Z,10.70
2022-10-15T17:17:22.329Z,12.70
2022-10-15T17:19:51.201Z,11.10
2022-10-15T17:22:21.041Z,10.87
2022-10-15T17:24:52.540Z,10.85
2022-10-15T17:27:21.512Z,11.43
2022-10-15T17:29:49.987Z,10.97
2022-10-15T17:32:18.548Z,10.50
2022-10-15T17:34:48.430Z,12.20
2022-10-15T17:37:17.080Z,11.23
2022-10-15T17:39:45.672Z,10.85
2022-10-15T17:42:15.820Z,11.27
2022-10-15T17:44:44.361Z,12.13
2022-10-15T17:47:13.432Z,11.43
2022-10-15T17:49:42.593Z,12.93
2022-10-15T17:52:12.878Z,12.10
2022-10-15T17:54:41.523Z,11.83
2022-10-15T17:57:10.008Z,12.67
2022-10-15T17:59:38.487Z,11.83
2022-10-15T18:02:07.103Z,12.70
2022-10-15T18:04:40.972Z,12.67
2022-10-15T18:07:09.534Z,12.27
2022-10-15T18:09:39.391Z,13.32
2022-10-15T18:12:07.932Z,14.13
2022-10-15T18:14:36.914Z,13.80
2022-10-15T18:17:05.972Z,14.20
2022-10-15T18:19:34.469Z,13.80
2022-10-15T18:22:03.004Z,14.32
2022-10-15T18:24:33.058Z,15.43
2022-10-15T18:27:07.609Z,14.77
2022-10-15T18:29:36.492Z,15.53
2022-10-15T18:32:05.226Z,14.83
2022-10-15T18:34:34.616Z,15.10
2022-10-15T18:37:03.129Z,15.27
2022-10-15T18:39:31.598Z,16.00
2022-10-15T18:42:00.296Z,16.40
2022-10-15T18:44:30.137Z,15.10
2022-10-15T18:46:58.614Z,15.53
2022-10-15T18:49:27.139Z,24.53
2022-10-15T18:51:56.161Z,19.23
2022-10-15T18:54:24.673Z,17.13
2022-10-15T18:56:53.822Z,19.63
2022-10-15T18:59:22.458Z,17.47
2022-10-15T19:01:55.215Z,21.23
2022-10-15T19:04:25.206Z,19.60
2022-10-15T19:06:55.185Z,21.45
2022-10-15T19:09:26.417Z,20.30
2022-10-15T19:11:56.697Z,19.73
2022-10-15T19:14:28.084Z,19.23
2022-10-15T19:16:58.333Z,19.23
2022-10-15T19:19:27.415Z,18.67
2022-10-15T19:21:58.716Z,19.67
2022-10-15T19:24:27.404Z,19.37
2022-10-15T19:26:56.007Z,18.33
2022-10-15T19:29:25.050Z,18.40
2022-10-15T19:31:54.713Z,17.03
2022-10-15T19:34:25.828Z,16.50
2022-10-15T19:36:54.340Z,17.27
2022-10-15T19:39:25.309Z,17.87
2022-10-15T19:41:54.176Z,19.33
2022-10-15T19:44:25.661Z,21.67
2022-10-15T19:46:55.675Z,21.23
2022-10-15T19:49:26.021Z,17.17
2022-10-15T19:51:55.674Z,18.07
2022-10-15T19:56:53.753Z,17.90
2022-10-15T19:59:22.251Z,18.45
2022-10-15T20:01:50.814Z,19.00
2022-10-15T20:04:21.007Z,18.30
2022-10-15T20:06:52.831Z,19.13
2022-10-15T20:09:21.412Z,19.98
2022-10-15T20:11:49.986Z,20.20
2022-10-15T20:14:18.451Z,20.23
2022-10-15T20:16:46.990Z,21.45
2022-10-15T20:19:15.614Z,22.80
2022-10-15T20:21:44.219Z,21.70
2022-10-15T20:24:14.112Z,25.40
2022-10-15T20:26:42.666Z,25.33
2022-10-15T20:29:11.121Z,26.77
2022-10-15T20:31:39.659Z,26.73
2022-10-15T20:34:08.138Z,26.90
2022-10-15T20:36:41.213Z,28.17
2022-10-15T20:39:09.815Z,27.20
2022-10-15T20:41:39.704Z,27.80
2022-10-15T20:44:10.635Z,32.20
2022-10-15T20:46:44.919Z,35.90
2022-10-15T20:49:17.795Z,43.60
2022-10-15T20:51:46.435Z,40.73
2022-10-15T20:54:15.961Z,38.90
2022-10-15T20:56:46.290Z,35.13
2022-10-15T20:59:14.943Z,33.87
2022-10-15T21:01:43.756Z,32.60
2022-10-15T21:04:12.327Z,32.90
2022-10-15T21:06:41.193Z,33.77
2022-10-15T21:09:09.657Z,32.90
2022-10-15T21:11:41.513Z,32.80
2022-10-15T21:14:11.799Z,31.20
2022-10-15T21:16:40.778Z,29.60
2022-10-15T21:19:09.856Z,30.50
2022-10-15T21:21:39.203Z,31.33
2022-10-15T21:24:08.022Z,31.70
2022-10-15T21:26:36.545Z,32.67
2022-10-15T21:29:05.247Z,32.73
2022-10-15T21:31:35.116Z,33.57
2022-10-15T21:34:03.772Z,34.17
2022-10-15T21:36:32.245Z,33.80
2022-10-15T21:39:02.671Z,33.47
2022-10-15T21:41:33.826Z,32.30
2022-10-15T21:44:04.127Z,34.97
2022-10-15T21:46:34.198Z,34.93
2022-10-15T21:49:04.053Z,33.37
2022-10-15T21:51:34.342Z,34.93
2022-10-15T21:54:04.624Z,34.90
2022-10-15T21:56:33.721Z,36.00
2022-10-15T21:59:02.708Z,34.50
2022-10-15T22:01:33.309Z,35.60
2022-10-15T22:04:05.255Z,35.40
2022-10-15T22:06:35.068Z,38.17
2022-10-15T22:09:04.741Z,33.50
2022-10-15T22:11:40.516Z,35.13
2022-10-15T22:14:12.437Z,36.10
2022-10-15T22:16:42.489Z,35.27
2022-10-15T22:19:16.109Z,34.93
2022-10-15T22:21:44.913Z,35.17
2022-10-15T22:24:17.031Z,34.43
2022-10-15T22:26:47.595Z,34.63
2022-10-15T22:29:21.008Z,34.83
2022-10-15T22:31:50.276Z,37.53
2022-10-15T22:34:21.748Z,35.43
2022-10-15T22:36:50.231Z,35.77
2022-10-15T22:39:19.539Z,35.70
2022-10-15T22:41:49.348Z,35.53
2022-10-15T22:44:19.986Z,36.70
2022-10-15T22:46:49.656Z,35.10
2022-10-15T22:49:21.688Z,34.80
2022-10-15T22:51:50.978Z,34.93
2022-10-15T22:54:22.643Z,34.67
2022-10-15T22:56:52.101Z,34.27
2022-10-15T22:59:21.187Z,35.10
2022-10-15T23:01:49.896Z,34.90
2022-10-15T23:04:19.911Z,34.57
2022-10-15T23:06:48.446Z,34.10
2022-10-15T23:09:18.015Z,33.07
2022-10-15T23:11:47.008Z,31.50
2022-10-15T23:14:17.098Z,32.57
2022-10-15T23:16:47.451Z,31.47
2022-10-15T23:19:18.210Z,30.27
2022-10-15T23:21:51.961Z,30.03
2022-10-15T23:24:22.524Z,31.20
2022-10-15T23:26:51.879Z,30.23
2022-10-15T23:29:22.832Z,30.03
2022-10-15T23:31:53.277Z,28.90
2022-10-15T23:34:24.221Z,32.07
2022-10-15T23:36:54.892Z,31.27
2022-10-15T23:39:26.784Z,29.30
2022-10-15T23:41:56.574Z,30.43
2022-10-15T23:44:26.805Z,31.53
2022-10-15T23:46:56.024Z,31.17
2022-10-15T23:49:25.114Z,30.43
2022-10-15T23:51:55.531Z,30.47
2022-10-15T23:54:24.288Z,29.90
2022-10-15T23:56:53.178Z,29.57
2022-10-15T23:59:22.400Z,29.77
